createdAt,value
2017-07-19T00:00:04.811Z,941.6
2017-07-19T00:01:12.899Z,941.6
2017-07-19T00:02:20.996Z,941.6
2017-07-19T00:03:29.084Z,941.6
2017-07-19T00:04:37.231Z,941.6
2017-07-19T00:05:45.260Z,941.6
2017-07-19T00:06:53.522Z,941.5
2017-07-19T00:08:01.440Z,941.5
2017-07-19T00:09:09.534Z,941.5
2017-07-19T00:10:17.742Z,941.5
2017-07-19T00:11:25.711Z,941.5
2017-07-19T00:12:33.841Z,941.5
2017-07-19T00:13:41.917Z,941.5
2017-07-19T00:14:49.980Z,941.5
2017-07-19T00:15:58.123Z,941.5
2017-07-19T00:17:06.157Z,941.5
2017-07-19T00:18:14.247Z,941.5
2017-07-19T00:19:22.336Z,941.5
2017-07-19T00:20:30.426Z,941.5
2017-07-19T00:21:38.634Z,941.5
2017-07-19T00:22:46.603Z,941.5
2017-07-19T00:23:54.779Z,941.5
2017-07-19T00:25:02.783Z,941.4
2017-07-19T00:26:10.937Z,941.4
2017-07-19T00:27:19.016Z,941.4
2017-07-19T00:28:27.049Z,941.4
2017-07-19T00:29:35.220Z,941.4
2017-07-19T00:30:43.227Z,941.3
2017-07-19T00:31:51.315Z,941.3
2017-07-19T00:32:59.525Z,941.3
2017-07-19T00:34:07.495Z,941.4
2017-07-19T00:35:15.584Z,941.4
2017-07-19T00:36:23.684Z,941.4
2017-07-19T00:37:31.760Z,941.4
2017-07-19T00:38:39.902Z,941.5
2017-07-19T00:39:47.934Z,941.5
2017-07-19T00:40:56.197Z,941.5
2017-07-19T00:42:04.173Z,941.5
2017-07-19T00:43:12.201Z,941.5
2017-07-19T00:44:20.413Z,941.5
2017-07-19T00:45:28.380Z,941.5
2017-07-19T00:46:36.516Z,941.4
2017-07-19T00:47:44.601Z,941.4
2017-07-19T00:48:52.646Z,941.4
2017-07-19T00:50:01.147Z,941.4
2017-07-19T00:51:08.824Z,941.4
2017-07-19T00:52:16.910Z,941.4
2017-07-19T00:53:25.001Z,941.4
2017-07-19T00:54:33.089Z,941.4
2017-07-19T00:55:41.257Z,941.4
2017-07-19T00:56:49.266Z,941.4
2017-07-19T00:57:57.613Z,941.4
2017-07-19T00:59:05.449Z,941.4
2017-07-19T01:00:13.532Z,941.4
2017-07-19T01:01:21.678Z,941.3
2017-07-19T01:02:29.711Z,941.3
2017-07-19T01:03:37.801Z,941.3
2017-07-19T01:04:45.889Z,941.3
2017-07-19T01:05:53.976Z,941.4
2017-07-19T01:07:02.123Z,941.4
2017-07-19T01:08:10.153Z,941.4
2017-07-19T01:09:18.241Z,941.4
2017-07-19T01:10:26.330Z,941.4
2017-07-19T01:11:34.420Z,941.4
2017-07-19T01:12:42.628Z,941.4
2017-07-19T01:13:50.653Z,941.4
2017-07-19T01:14:58.758Z,941.4
2017-07-19T01:16:06.773Z,941.4
2017-07-19T01:17:14.864Z,941.4
2017-07-19T01:18:23.008Z,941.5
2017-07-19T01:19:31.039Z,941.4
2017-07-19T01:20:39.184Z,941.4
2017-07-19T01:21:47.219Z,941.5
2017-07-19T01:22:55.314Z,941.4
2017-07-19T01:24:03.525Z,941.4
2017-07-19T01:25:11.492Z,941.4
2017-07-19T01:26:19.704Z,941.4
2017-07-19T01:27:27.668Z,941.4
2017-07-19T01:28:35.754Z,941.3
2017-07-19T01:29:43.901Z,941.4
2017-07-19T01:30:51.932Z,941.4
2017-07-19T01:32:00.024Z,941.4
2017-07-19T01:33:08.111Z,941.4
2017-07-19T01:34:16.200Z,941.3
2017-07-19T01:35:24.346Z,941.3
2017-07-19T01:36:32.376Z,941.4
2017-07-19T01:37:40.507Z,941.3
2017-07-19T01:38:48.558Z,941.3
2017-07-19T01:39:56.643Z,941.4
2017-07-19T01:41:04.851Z,941.3
2017-07-19T01:42:12.820Z,941.3
2017-07-19T01:43:21.078Z,941.3
2017-07-19T01:44:28.996Z,941.3
2017-07-19T01:45:37.140Z,941.3
2017-07-19T01:46:45.233Z,941.3
2017-07-19T01:47:53.262Z,941.2
2017-07-19T01:49:01.410Z,941.2
2017-07-19T01:50:09.439Z,941.2
2017-07-19T01:51:17.528Z,941.2
2017-07-19T01:52:25.738Z,941.2
2017-07-19T01:53:33.704Z,941.2
2017-07-19T01:54:41.847Z,941.2
2017-07-19T01:55:49.883Z,941.2
2017-07-19T01:56:57.972Z,941.2
2017-07-19T01:58:06.117Z,941.2
2017-07-19T01:59:14.150Z,941.1
2017-07-19T02:00:22.363Z,941.2
2017-07-19T02:01:30.383Z,941.2
2017-07-19T02:02:38.414Z,941.2
2017-07-19T02:03:46.625Z,941.2
2017-07-19T02:04:54.591Z,941.2
2017-07-19T02:06:02.680Z,941.2
2017-07-19T02:07:10.774Z,941.2
2017-07-19T02:08:18.864Z,941.1
2017-07-19T02:09:27.008Z,941.1
2017-07-19T02:10:35.041Z,941.1
2017-07-19T02:11:43.171Z,941.1
2017-07-19T02:12:51.219Z,941.1
2017-07-19T02:13:59.305Z,941.1
2017-07-19T02:15:07.453Z,941.1
2017-07-19T02:16:15.484Z,941.1
2017-07-19T02:17:23.809Z,941.1
2017-07-19T02:18:31.659Z,941.0
2017-07-19T02:19:39.755Z,941.1
2017-07-19T02:20:47.900Z,941.0
2017-07-19T02:21:55.933Z,941.0
2017-07-19T02:23:04.022Z,941.0
2017-07-19T02:24:12.107Z,941.0
2017-07-19T02:25:20.198Z,940.9
2017-07-19T02:26:28.343Z,941.0
2017-07-19T02:27:36.570Z,941.0
2017-07-19T02:28:44.484Z,941.0
2017-07-19T02:29:52.551Z,940.9
2017-07-19T02:31:00.641Z,941.0
2017-07-19T02:32:08.848Z,941.0
2017-07-19T02:33:16.872Z,941.0
2017-07-19T02:34:25.039Z,941.0
2017-07-19T02:35:32.993Z,941.0
2017-07-19T02:36:41.083Z,941.0
2017-07-19T02:37:49.224Z,941.0
2017-07-19T02:38:57.258Z,941.0
2017-07-19T02:40:05.345Z,941.0
2017-07-19T02:41:13.434Z,941.1
2017-07-19T02:42:21.522Z,941.0
2017-07-19T02:43:29.683Z,941.1
2017-07-19T02:44:37.889Z,941.1
2017-07-19T02:45:45.791Z,941.1
2017-07-19T02:46:53.876Z,941.1
2017-07-19T02:48:01.964Z,941.1
2017-07-19T02:49:10.173Z,941.1
2017-07-19T02:50:18.140Z,941.1
2017-07-19T02:51:26.254Z,941.1
2017-07-19T02:52:34.316Z,941.1
2017-07-19T02:53:42.403Z,941.1
2017-07-19T02:54:50.548Z,941.1
2017-07-19T02:55:58.582Z,941.2
2017-07-19T02:57:06.676Z,941.1
2017-07-19T02:58:14.765Z,941.1
2017-07-19T02:59:22.854Z,941.1
2017-07-19T03:00:31.000Z,941.1
2017-07-19T03:01:39.207Z,941.1
2017-07-19T03:02:47.203Z,941.1
2017-07-19T03:03:55.205Z,941.1
2017-07-19T03:05:03.416Z,941.1
2017-07-19T03:06:11.440Z,941.1
2017-07-19T03:07:19.472Z,941.2
2017-07-19T03:08:27.612Z,941.1
2017-07-19T03:09:35.650Z,941.2
2017-07-19T03:10:43.735Z,941.2
2017-07-19T03:11:51.880Z,941.2
2017-07-19T03:12:59.911Z,941.2
2017-07-19T03:14:08.001Z,941.2
2017-07-19T03:15:16.088Z,941.2
2017-07-19T03:16:24.178Z,941.2
2017-07-19T03:17:32.324Z,941.2
2017-07-19T03:18:40.486Z,941.2
2017-07-19T03:19:48.480Z,941.2
2017-07-19T03:20:56.653Z,941.2
2017-07-19T03:22:04.620Z,941.2
2017-07-19T03:23:12.764Z,941.2
2017-07-19T03:24:20.797Z,941.2
2017-07-19T03:25:28.893Z,941.2
2017-07-19T03:26:36.974Z,941.2
2017-07-19T03:27:45.063Z,941.3
2017-07-19T03:28:53.208Z,941.3
2017-07-19T03:30:01.409Z,941.3
2017-07-19T03:31:09.326Z,941.3
2017-07-19T03:32:17.415Z,941.3
2017-07-19T03:33:25.505Z,941.3
2017-07-19T03:34:33.712Z,941.3
2017-07-19T03:35:41.787Z,941.3
2017-07-19T03:36:49.850Z,941.3
2017-07-19T03:37:57.856Z,941.3
2017-07-19T03:39:05.945Z,941.3
2017-07-19T03:40:14.091Z,941.3
2017-07-19T03:41:22.122Z,941.3
2017-07-19T03:42:30.210Z,941.3
2017-07-19T03:43:38.297Z,941.3
2017-07-19T03:44:46.386Z,941.3
2017-07-19T03:45:54.594Z,941.3
2017-07-19T03:47:02.563Z,941.4
2017-07-19T03:48:10.651Z,941.4
2017-07-19T03:49:18.742Z,941.4
2017-07-19T03:50:26.833Z,941.4
2017-07-19T03:51:34.977Z,941.4
2017-07-19T03:52:43.247Z,941.4
2017-07-19T03:53:51.177Z,941.4
2017-07-19T03:54:59.185Z,941.3
2017-07-19T03:56:07.272Z,941.4
2017-07-19T03:57:15.484Z,941.4
2017-07-19T03:58:23.451Z,941.4
2017-07-19T03:59:31.638Z,941.3
2017-07-19T04:00:39.626Z,941.3
2017-07-19T04:01:47.712Z,941.4
2017-07-19T04:02:55.859Z,941.4
2017-07-19T04:04:03.892Z,941.4
2017-07-19T04:05:11.979Z,941.4
2017-07-19T04:06:20.068Z,941.4
2017-07-19T04:07:28.804Z,941.3
2017-07-19T04:08:36.366Z,941.3
2017-07-19T04:09:44.489Z,941.3
2017-07-19T04:10:52.476Z,941.3
2017-07-19T04:12:00.511Z,941.3
2017-07-19T04:13:08.598Z,941.3
2017-07-19T04:14:16.748Z,941.3
2017-07-19T04:15:25.249Z,941.4
2017-07-19T04:16:32.915Z,941.4
2017-07-19T04:17:40.953Z,941.4
2017-07-19T04:18:49.045Z,941.5
2017-07-19T04:19:57.187Z,941.4
2017-07-19T04:21:05.238Z,941.4
2017-07-19T04:22:13.307Z,941.4
2017-07-19T04:23:21.395Z,941.4
2017-07-19T04:24:29.607Z,941.4
2017-07-19T04:25:37.629Z,941.4
2017-07-19T04:26:45.800Z,941.4
2017-07-19T04:27:53.789Z,941.4
2017-07-19T04:29:01.840Z,941.5
2017-07-19T04:30:09.928Z,941.5
2017-07-19T04:31:18.072Z,941.5
2017-07-19T04:32:26.103Z,941.5
2017-07-19T04:33:34.191Z,941.5
2017-07-19T04:34:42.282Z,941.5
2017-07-19T04:35:50.377Z,941.5
2017-07-19T04:36:58.591Z,941.5
2017-07-19T04:38:06.559Z,941.5
2017-07-19T04:39:14.946Z,941.5
2017-07-19T04:40:22.793Z,941.5
2017-07-19T04:41:30.824Z,941.5
2017-07-19T04:42:38.977Z,941.5
2017-07-19T04:43:47.044Z,941.5
2017-07-19T04:44:55.121Z,941.5
2017-07-19T04:46:03.446Z,941.5
2017-07-19T04:47:11.277Z,941.6
2017-07-19T04:48:19.490Z,941.6
2017-07-19T04:49:27.453Z,941.6
2017-07-19T04:50:35.580Z,941.6
2017-07-19T04:51:43.632Z,941.6
2017-07-19T04:52:51.719Z,941.6
2017-07-19T04:53:59.867Z,941.5
2017-07-19T04:55:07.898Z,941.5
2017-07-19T04:56:16.104Z,941.5
2017-07-19T04:57:24.074Z,941.5
2017-07-19T04:58:32.163Z,941.5
2017-07-19T04:59:40.310Z,941.5
2017-07-19T05:00:48.384Z,941.6
2017-07-19T05:01:56.473Z,941.6
2017-07-19T05:03:04.519Z,941.6
2017-07-19T05:04:12.693Z,941.5
2017-07-19T05:05:20.753Z,941.5
2017-07-19T05:06:28.783Z,941.6
2017-07-19T05:07:36.910Z,941.6
2017-07-19T05:08:44.960Z,941.6
2017-07-19T05:09:53.048Z,941.6
2017-07-19T05:11:01.263Z,941.6
2017-07-19T05:12:09.284Z,941.6
2017-07-19T05:13:17.318Z,941.6
2017-07-19T05:14:25.406Z,941.6
2017-07-19T05:15:33.492Z,941.6
2017-07-19T05:16:41.637Z,941.6
2017-07-19T05:17:49.787Z,941.6
2017-07-19T05:18:57.787Z,941.6
2017-07-19T05:20:05.846Z,941.7
2017-07-19T05:21:13.936Z,941.7
2017-07-19T05:22:22.146Z,941.6
2017-07-19T05:23:30.113Z,941.6
2017-07-19T05:24:38.208Z,941.7
2017-07-19T05:25:46.294Z,941.7
2017-07-19T05:26:54.381Z,941.7
2017-07-19T05:28:02.527Z,941.7
2017-07-19T05:29:10.561Z,941.6
2017-07-19T05:30:18.650Z,941.6
2017-07-19T05:31:26.740Z,941.6
2017-07-19T05:32:34.826Z,941.6
2017-07-19T05:33:43.037Z,941.7
2017-07-19T05:34:51.125Z,941.7
2017-07-19T05:35:59.123Z,941.7
2017-07-19T05:37:07.185Z,941.7
2017-07-19T05:38:15.272Z,941.7
2017-07-19T05:39:23.484Z,941.8
2017-07-19T05:40:31.456Z,941.8
2017-07-19T05:41:39.560Z,941.8
2017-07-19T05:42:47.636Z,941.8
2017-07-19T05:43:55.783Z,941.8
2017-07-19T05:45:03.934Z,941.8
2017-07-19T05:46:12.082Z,941.8
2017-07-19T05:47:19.992Z,941.8
2017-07-19T05:48:28.082Z,941.8
2017-07-19T05:49:36.167Z,941.9
2017-07-19T05:50:44.311Z,941.9
2017-07-19T05:51:52.431Z,941.9
2017-07-19T05:53:00.520Z,941.9
2017-07-19T05:54:08.522Z,941.9
2017-07-19T05:55:16.613Z,942.0
2017-07-19T05:56:24.824Z,941.9
2017-07-19T05:57:32.789Z,941.9
2017-07-19T05:58:40.880Z,941.9
2017-07-19T05:59:49.022Z,941.9
2017-07-19T06:00:57.068Z,941.9
2017-07-19T06:02:05.267Z,941.9
2017-07-19T06:03:13.400Z,942.0
2017-07-19T06:04:21.323Z,942.0
2017-07-19T06:05:29.409Z,942.0
2017-07-19T06:06:37.502Z,942.0
2017-07-19T06:07:45.647Z,942.0
2017-07-19T06:08:53.738Z,942.0
2017-07-19T06:10:01.814Z,942.0
2017-07-19T06:11:09.855Z,942.0
2017-07-19T06:12:17.943Z,942.0
2017-07-19T06:13:26.159Z,942.0
2017-07-19T06:14:34.120Z,942.0
2017-07-19T06:15:42.268Z,942.0
2017-07-19T06:16:50.301Z,942.0
2017-07-19T06:17:58.387Z,942.0
2017-07-19T06:19:06.532Z,942.0
2017-07-19T06:20:14.662Z,942.0
2017-07-19T06:21:22.651Z,942.1
2017-07-19T06:22:30.741Z,942.1
2017-07-19T06:23:38.830Z,942.1
2017-07-19T06:24:46.974Z,942.1
2017-07-19T06:25:55.007Z,942.1
2017-07-19T06:27:03.095Z,942.1
2017-07-19T06:28:11.184Z,942.1
2017-07-19T06:29:19.272Z,942.1
2017-07-19T06:30:27.481Z,942.0
2017-07-19T06:31:35.449Z,942.1
2017-07-19T06:32:43.540Z,942.1
2017-07-19T06:33:51.627Z,942.1
2017-07-19T06:34:59.716Z,942.1
2017-07-19T06:36:07.861Z,942.2
2017-07-19T06:37:15.891Z,942.1
2017-07-19T06:38:23.981Z,942.1
2017-07-19T06:39:32.071Z,942.2
2017-07-19T06:40:40.158Z,942.1
2017-07-19T06:41:48.302Z,942.1
2017-07-19T06:42:56.472Z,942.1
2017-07-19T06:44:04.467Z,942.1
2017-07-19T06:45:12.512Z,942.1
2017-07-19T06:46:20.657Z,942.1
2017-07-19T06:47:28.808Z,942.1
2017-07-19T06:48:36.775Z,942.1
2017-07-19T06:49:44.916Z,942.1
2017-07-19T06:50:52.953Z,942.1
2017-07-19T06:52:01.042Z,942.1
2017-07-19T06:53:09.252Z,942.1
2017-07-19T06:54:17.219Z,942.1
2017-07-19T06:55:25.307Z,942.1
2017-07-19T06:56:33.397Z,942.1
2017-07-19T06:57:41.486Z,942.1
2017-07-19T06:58:49.628Z,942.1
2017-07-19T06:59:57.795Z,942.1
2017-07-19T07:01:05.831Z,942.1
2017-07-19T07:02:13.965Z,942.1
2017-07-19T07:03:21.934Z,942.1
2017-07-19T07:04:30.078Z,942.1
2017-07-19T07:05:38.111Z,942.1
2017-07-19T07:06:46.201Z,942.1
2017-07-19T07:07:54.285Z,942.1
2017-07-19T07:09:02.371Z,942.1
2017-07-19T07:10:10.584Z,942.2
2017-07-19T07:11:18.553Z,942.1
2017-07-19T07:12:26.642Z,942.1
2017-07-19T07:13:34.730Z,942.1
2017-07-19T07:14:42.839Z,942.0
2017-07-19T07:15:50.964Z,942.1
2017-07-19T07:16:59.140Z,942.1
2017-07-19T07:18:07.243Z,942.0
2017-07-19T07:19:15.174Z,942.0
2017-07-19T07:20:23.262Z,942.0
2017-07-19T07:21:31.405Z,942.0
2017-07-19T07:22:39.438Z,942.0
2017-07-19T07:23:47.536Z,942.0
2017-07-19T07:24:55.616Z,942.0
2017-07-19T07:26:03.702Z,942.0
2017-07-19T07:27:11.911Z,942.0
2017-07-19T07:28:19.876Z,942.0
2017-07-19T07:29:27.966Z,942.0
2017-07-19T07:30:36.057Z,942.0
2017-07-19T07:31:44.143Z,942.0
2017-07-19T07:32:52.290Z,942.0
2017-07-19T07:34:00.588Z,942.0
2017-07-19T07:35:08.439Z,942.0
2017-07-19T07:36:16.501Z,942.0
2017-07-19T07:37:24.587Z,942.0
2017-07-19T07:38:32.730Z,942.0
2017-07-19T07:39:40.762Z,942.0
2017-07-19T07:40:48.936Z,942.0
2017-07-19T07:41:56.940Z,942.0
2017-07-19T07:43:05.034Z,942.0
2017-07-19T07:44:13.242Z,942.0
2017-07-19T07:45:21.213Z,942.0
2017-07-19T07:46:29.298Z,941.9
2017-07-19T07:47:37.390Z,942.0
2017-07-19T07:48:45.476Z,941.9
2017-07-19T07:49:53.622Z,941.9
2017-07-19T07:51:01.817Z,941.9
2017-07-19T07:52:09.822Z,941.9
2017-07-19T07:53:17.832Z,941.9
2017-07-19T07:54:25.923Z,941.9
2017-07-19T07:55:34.130Z,941.9
2017-07-19T07:56:42.098Z,941.9
2017-07-19T07:57:50.184Z,941.9
2017-07-19T07:58:58.275Z,941.9
2017-07-19T08:00:06.363Z,941.9
2017-07-19T08:01:14.507Z,941.9
2017-07-19T08:02:22.541Z,941.9
2017-07-19T08:03:30.632Z,941.8
2017-07-19T08:04:38.719Z,941.9
2017-07-19T08:05:46.928Z,941.9
2017-07-19T08:06:54.955Z,941.9
2017-07-19T08:08:03.089Z,941.9
2017-07-19T08:09:11.092Z,941.9
2017-07-19T08:10:19.162Z,941.9
2017-07-19T08:11:27.253Z,941.9
2017-07-19T08:12:35.398Z,941.9
2017-07-19T08:13:43.433Z,941.9
2017-07-19T08:14:51.528Z,941.9
2017-07-19T08:15:59.606Z,941.9
2017-07-19T08:17:07.697Z,941.9
2017-07-19T08:18:15.843Z,941.9
2017-07-19T08:19:24.040Z,941.9
2017-07-19T08:20:31.964Z,941.9
2017-07-19T08:21:40.173Z,941.9
2017-07-19T08:22:48.146Z,941.9
2017-07-19T08:23:56.291Z,941.9
2017-07-19T08:25:04.322Z,941.8
2017-07-19T08:26:12.458Z,941.8
2017-07-19T08:27:20.499Z,941.8
2017-07-19T08:28:28.590Z,941.7
2017-07-19T08:29:36.736Z,941.7
2017-07-19T08:30:44.770Z,941.7
2017-07-19T08:31:52.862Z,941.7
2017-07-19T08:33:00.946Z,941.7
2017-07-19T08:34:09.036Z,941.7
2017-07-19T08:35:17.245Z,941.7
2017-07-19T08:36:25.386Z,941.7
2017-07-19T08:37:33.367Z,941.6
2017-07-19T08:38:41.399Z,941.6
2017-07-19T08:39:49.488Z,941.6
2017-07-19T08:40:57.697Z,941.6
2017-07-19T08:42:05.701Z,941.6
2017-07-19T08:43:13.811Z,941.6
2017-07-19T08:44:21.843Z,941.6
2017-07-19T08:45:29.931Z,941.6
2017-07-19T08:46:38.077Z,941.6
2017-07-19T08:47:46.110Z,941.6
2017-07-19T08:48:54.208Z,941.6
2017-07-19T08:50:02.289Z,941.5
2017-07-19T08:51:10.382Z,941.6
2017-07-19T08:52:18.589Z,941.6
2017-07-19T08:53:26.760Z,941.6
2017-07-19T08:54:34.643Z,941.5
2017-07-19T08:55:42.735Z,941.5
2017-07-19T08:56:50.826Z,941.6
2017-07-19T08:57:58.970Z,941.6
2017-07-19T08:59:07.072Z,941.6
2017-07-19T09:00:15.095Z,941.6
2017-07-19T09:01:23.182Z,941.6
2017-07-19T09:02:31.270Z,941.6
2017-07-19T09:03:39.478Z,941.6
2017-07-19T09:04:47.448Z,941.6
2017-07-19T09:05:55.538Z,941.6
2017-07-19T09:07:03.627Z,941.6
2017-07-19T09:08:11.719Z,941.6
2017-07-19T09:09:19.927Z,941.6
2017-07-19T09:10:28.077Z,941.5
2017-07-19T09:11:35.986Z,941.6
2017-07-19T09:12:44.073Z,941.6
2017-07-19T09:13:52.168Z,941.6
2017-07-19T09:15:00.646Z,941.5
2017-07-19T09:16:08.377Z,941.5
2017-07-19T09:17:16.482Z,941.6
2017-07-19T09:18:24.530Z,941.6
2017-07-19T09:19:32.617Z,941.6
2017-07-19T09:20:40.764Z,941.5
2017-07-19T09:21:48.796Z,941.5
2017-07-19T09:22:56.885Z,941.5
2017-07-19T09:24:04.976Z,941.5
2017-07-19T09:25:13.138Z,941.5
2017-07-19T09:26:21.272Z,941.5
2017-07-19T09:27:29.412Z,941.5
2017-07-19T09:28:37.334Z,941.5
2017-07-19T09:29:45.425Z,941.5
2017-07-19T09:30:53.516Z,941.5
2017-07-19T09:32:01.659Z,941.5
2017-07-19T09:33:09.740Z,941.5
2017-07-19T09:34:17.869Z,941.5
2017-07-19T09:35:25.871Z,941.5
2017-07-19T09:36:33.961Z,941.4
2017-07-19T09:37:42.106Z,941.4
2017-07-19T09:38:50.140Z,941.5
2017-07-19T09:39:58.234Z,941.5
2017-07-19T09:41:06.379Z,941.5
2017-07-19T09:42:14.407Z,941.4
2017-07-19T09:43:22.620Z,941.4
2017-07-19T09:44:30.750Z,941.5
2017-07-19T09:45:38.677Z,941.5
2017-07-19T09:46:46.772Z,941.4
2017-07-19T09:47:54.863Z,941.4
2017-07-19T09:49:03.071Z,941.4
2017-07-19T09:50:11.105Z,941.3
2017-07-19T09:51:19.128Z,941.4
2017-07-19T09:52:27.218Z,941.3
2017-07-19T09:53:35.308Z,941.3
2017-07-19T09:54:43.456Z,941.3
2017-07-19T09:55:51.486Z,941.3
2017-07-19T09:56:59.695Z,941.3
2017-07-19T09:58:07.666Z,941.3
2017-07-19T09:59:15.759Z,941.2
2017-07-19T10:00:23.902Z,941.3
2017-07-19T10:01:32.076Z,941.3
2017-07-19T10:02:40.021Z,941.2
2017-07-19T10:03:48.112Z,941.3
2017-07-19T10:04:56.203Z,941.3
2017-07-19T10:06:04.349Z,941.2
2017-07-19T10:07:12.420Z,941.2
2017-07-19T10:08:20.501Z,941.2
2017-07-19T10:09:28.560Z,941.2
2017-07-19T10:10:36.645Z,941.2
2017-07-19T10:11:44.858Z,941.2
2017-07-19T10:12:52.883Z,941.2
2017-07-19T10:14:00.915Z,941.2
2017-07-19T10:15:09.004Z,941.2
2017-07-19T10:16:17.095Z,941.2
2017-07-19T10:17:25.241Z,941.2
2017-07-19T10:18:33.412Z,941.2
2017-07-19T10:19:41.364Z,941.1
2017-07-19T10:20:49.454Z,941.1
2017-07-19T10:21:57.540Z,941.1
2017-07-19T10:23:05.752Z,941.1
2017-07-19T10:24:13.740Z,941.1
2017-07-19T10:25:21.824Z,941.1
2017-07-19T10:26:29.900Z,941.1
2017-07-19T10:27:37.992Z,941.0
2017-07-19T10:28:46.285Z,941.0
2017-07-19T10:29:54.249Z,941.0
2017-07-19T10:31:02.257Z,941.0
2017-07-19T10:32:10.348Z,941.0
2017-07-19T10:33:18.440Z,941.0
2017-07-19T10:34:26.582Z,941.0
2017-07-19T10:35:34.695Z,941.0
2017-07-19T10:36:42.707Z,941.0
2017-07-19T10:37:50.797Z,941.0
2017-07-19T10:38:58.887Z,941.0
2017-07-19T10:40:07.104Z,941.0
2017-07-19T10:41:15.065Z,941.0
2017-07-19T10:42:23.158Z,941.0
2017-07-19T10:43:31.246Z,941.0
2017-07-19T10:44:39.393Z,941.0
2017-07-19T10:45:47.764Z,941.0
2017-07-19T10:46:55.620Z,940.9
2017-07-19T10:48:03.604Z,940.9
2017-07-19T10:49:11.693Z,940.9
2017-07-19T10:50:19.782Z,940.9
2017-07-19T10:51:27.927Z,940.8
2017-07-19T10:52:35.970Z,940.9
2017-07-19T10:53:44.054Z,940.8
2017-07-19T10:54:52.146Z,940.8
2017-07-19T10:56:00.242Z,940.8
2017-07-19T10:57:08.637Z,940.8
2017-07-19T10:58:16.411Z,940.8
2017-07-19T10:59:24.500Z,940.7
2017-07-19T11:00:32.644Z,940.7
2017-07-19T11:01:40.678Z,940.6
2017-07-19T11:02:48.979Z,940.7
2017-07-19T11:03:56.948Z,940.7
2017-07-19T11:05:04.948Z,940.6
2017-07-19T11:06:13.038Z,940.6
2017-07-19T11:07:21.128Z,940.6
2017-07-19T11:08:29.340Z,940.6
2017-07-19T11:09:37.309Z,940.5
2017-07-19T11:10:45.397Z,940.6
2017-07-19T11:11:53.486Z,940.5
2017-07-19T11:13:01.576Z,940.5
2017-07-19T11:14:09.854Z,940.5
2017-07-19T11:15:17.756Z,940.5
2017-07-19T11:16:25.903Z,940.5
2017-07-19T11:17:33.937Z,940.5
2017-07-19T11:18:42.025Z,940.5
2017-07-19T11:19:50.236Z,940.5
2017-07-19T11:20:58.206Z,940.5
2017-07-19T11:22:06.296Z,940.5
2017-07-19T11:23:14.386Z,940.5
2017-07-19T11:24:22.496Z,940.4
2017-07-19T11:25:30.621Z,940.4
2017-07-19T11:26:38.655Z,940.4
2017-07-19T11:27:46.752Z,940.4
2017-07-19T11:28:54.834Z,940.4
2017-07-19T11:30:02.924Z,940.4
2017-07-19T11:31:11.327Z,940.4
2017-07-19T11:32:19.161Z,940.4
2017-07-19T11:33:27.191Z,940.4
2017-07-19T11:34:35.284Z,940.4
2017-07-19T11:35:43.373Z,940.4
2017-07-19T11:36:51.649Z,940.4
2017-07-19T11:37:59.679Z,940.3
2017-07-19T11:39:07.642Z,940.3
2017-07-19T11:40:15.734Z,940.2
2017-07-19T11:41:23.821Z,940.2
2017-07-19T11:42:31.966Z,940.3
2017-07-19T11:43:40.048Z,940.3
2017-07-19T11:44:48.092Z,940.3
2017-07-19T11:45:56.182Z,940.2
2017-07-19T11:47:04.272Z,940.2
2017-07-19T11:48:12.415Z,940.2
2017-07-19T11:49:20.450Z,940.2
2017-07-19T11:50:28.538Z,940.2
2017-07-19T11:51:36.628Z,940.2
2017-07-19T11:52:44.718Z,940.1
2017-07-19T11:53:53.066Z,940.1
2017-07-19T11:55:01.462Z,940.1
2017-07-19T11:56:08.997Z,940.1
2017-07-19T11:57:17.084Z,940.2
2017-07-19T11:58:25.175Z,940.1
2017-07-19T11:59:33.321Z,940.1
2017-07-19T12:00:41.367Z,940.1
2017-07-19T12:01:49.445Z,940.1
2017-07-19T12:02:57.534Z,940.0
2017-07-19T12:04:05.746Z,940.0
2017-07-19T12:05:13.769Z,940.0
2017-07-19T12:06:21.804Z,940.0
2017-07-19T12:07:29.892Z,940.0
2017-07-19T12:08:37.982Z,940.0
2017-07-19T12:09:46.072Z,940.0
2017-07-19T12:10:54.229Z,940.0
2017-07-19T12:12:02.374Z,940.0
2017-07-19T12:13:10.344Z,940.0
2017-07-19T12:14:18.433Z,940.0
2017-07-19T12:15:26.524Z,940.0
2017-07-19T12:16:34.733Z,939.9
2017-07-19T12:17:42.700Z,940.0
2017-07-19T12:18:50.802Z,940.0
2017-07-19T12:19:58.944Z,939.9
2017-07-19T12:21:06.979Z,939.9
2017-07-19T12:22:15.237Z,939.9
2017-07-19T12:23:23.161Z,939.9
2017-07-19T12:24:31.247Z,939.9
2017-07-19T12:25:39.335Z,939.9
2017-07-19T12:26:47.426Z,939.9
2017-07-19T12:27:55.582Z,939.9
2017-07-19T12:29:03.618Z,939.9
2017-07-19T12:30:11.696Z,939.9
2017-07-19T12:31:19.788Z,939.9
2017-07-19T12:32:28.059Z,939.9
2017-07-19T12:33:36.198Z,939.9
2017-07-19T12:34:44.056Z,939.9
2017-07-19T12:35:52.265Z,939.9
2017-07-19T12:37:00.235Z,939.9
2017-07-19T12:38:08.324Z,939.9
2017-07-19T12:39:16.525Z,939.9
2017-07-19T12:40:24.506Z,939.9
2017-07-19T12:41:32.597Z,939.9
2017-07-19T12:42:40.686Z,939.9
2017-07-19T12:43:48.775Z,939.8
2017-07-19T12:44:56.985Z,939.8
2017-07-19T12:46:04.957Z,939.9
2017-07-19T12:47:13.045Z,939.8
2017-07-19T12:48:21.135Z,939.8
2017-07-19T12:49:29.245Z,939.7
2017-07-19T12:50:37.498Z,939.7
2017-07-19T12:51:45.526Z,939.8
2017-07-19T12:52:53.496Z,939.8
2017-07-19T12:54:01.588Z,939.8
2017-07-19T12:55:09.676Z,939.8
2017-07-19T12:56:17.820Z,939.8
2017-07-19T12:57:25.853Z,939.8
2017-07-19T12:58:33.945Z,939.8
2017-07-19T12:59:42.036Z,939.8
2017-07-19T13:00:50.213Z,939.8
2017-07-19T13:01:58.338Z,939.8
2017-07-19T13:03:06.306Z,939.7
2017-07-19T13:04:14.396Z,939.8
2017-07-19T13:05:22.485Z,939.7
2017-07-19T13:06:30.717Z,939.8
2017-07-19T13:07:38.767Z,939.7
2017-07-19T13:08:46.764Z,939.7
2017-07-19T13:09:54.873Z,939.7
2017-07-19T13:11:02.943Z,939.6
2017-07-19T13:12:11.033Z,939.7
2017-07-19T13:13:19.244Z,939.7
2017-07-19T13:14:27.218Z,939.7
2017-07-19T13:15:35.309Z,939.6
2017-07-19T13:16:43.399Z,939.6
2017-07-19T13:17:51.489Z,939.6
2017-07-19T13:18:59.634Z,939.6
2017-07-19T13:20:07.669Z,939.7
2017-07-19T13:21:15.761Z,939.6
2017-07-19T13:22:23.851Z,939.6
2017-07-19T13:23:32.208Z,939.6
2017-07-19T13:24:40.253Z,939.5
2017-07-19T13:25:48.141Z,939.6
2017-07-19T13:26:56.211Z,939.6
2017-07-19T13:28:04.307Z,939.5
2017-07-19T13:29:12.398Z,939.5
2017-07-19T13:30:20.597Z,939.5
2017-07-19T13:31:28.577Z,939.5
2017-07-19T13:32:36.664Z,939.5
2017-07-19T13:33:44.756Z,939.5
2017-07-19T13:34:52.848Z,939.5
2017-07-19T13:36:01.055Z,939.5
2017-07-19T13:37:09.027Z,939.5
2017-07-19T13:38:17.117Z,939.4
2017-07-19T13:39:25.263Z,939.5
2017-07-19T13:40:33.408Z,939.5
2017-07-19T13:41:41.617Z,939.4
2017-07-19T13:42:49.475Z,939.4
2017-07-19T13:43:57.566Z,939.5
2017-07-19T13:45:05.658Z,939.4
2017-07-19T13:46:13.747Z,939.5
2017-07-19T13:47:22.007Z,939.5
2017-07-19T13:48:29.928Z,939.5
2017-07-19T13:49:38.016Z,939.4
2017-07-19T13:50:46.106Z,939.4
2017-07-19T13:51:54.194Z,939.4
2017-07-19T13:53:02.407Z,939.4
2017-07-19T13:54:10.375Z,939.3
2017-07-19T13:55:18.525Z,939.3
2017-07-19T13:56:26.559Z,939.3
2017-07-19T13:57:34.766Z,939.3
2017-07-19T13:58:42.976Z,939.3
2017-07-19T13:59:50.828Z,939.3
2017-07-19T14:00:58.915Z,939.3
2017-07-19T14:02:07.005Z,939.2
2017-07-19T14:03:15.095Z,939.2
2017-07-19T14:04:23.246Z,939.2
2017-07-19T14:05:31.278Z,939.2
2017-07-19T14:06:39.369Z,939.2
2017-07-19T14:07:47.459Z,939.2
2017-07-19T14:08:55.699Z,939.2
2017-07-19T14:10:03.694Z,939.2
2017-07-19T14:11:11.848Z,939.2
2017-07-19T14:12:19.816Z,939.2
2017-07-19T14:13:27.905Z,939.1
2017-07-19T14:14:36.011Z,939.0
2017-07-19T14:15:44.146Z,939.1
2017-07-19T14:16:52.177Z,939.1
2017-07-19T14:18:00.270Z,939.1
2017-07-19T14:19:08.359Z,939.1
2017-07-19T14:20:16.447Z,939.0
2017-07-19T14:21:24.593Z,939.0
2017-07-19T14:22:32.629Z,939.0
2017-07-19T14:23:40.717Z,939.0
2017-07-19T14:24:48.810Z,939.0
2017-07-19T14:25:56.980Z,939.0
2017-07-19T14:27:05.116Z,939.0
2017-07-19T14:28:13.082Z,939.0
2017-07-19T14:29:21.174Z,938.9
2017-07-19T14:30:29.264Z,938.9
2017-07-19T14:31:37.357Z,938.9
2017-07-19T14:32:45.565Z,938.9
2017-07-19T14:33:53.533Z,938.9
2017-07-19T14:35:01.625Z,938.9
2017-07-19T14:36:09.913Z,938.9